createdAt,value
2018-07-09T00:00:50.550Z,44.80
2018-07-09T00:01:52.819Z,44.90
2018-07-09T00:02:55.284Z,45.10
2018-07-09T00:03:57.547Z,45.10
2018-07-09T00:04:59.801Z,45.70
2018-07-09T00:06:02.050Z,45.70
2018-07-09T00:07:04.320Z,45.70
2018-07-09T00:08:07.349Z,45.70
2018-07-09T00:09:09.609Z,45.70
2018-07-09T00:10:12.086Z,45.70
2018-07-09T00:11:14.298Z,45.40
2018-07-09T00:12:16.543Z,46.30
2018-07-09T00:13:19.142Z,46.40
2018-07-09T00:14:21.390Z,46.50
2018-07-09T00:15:23.703Z,47.40
2018-07-09T00:16:25.965Z,47.60
2018-07-09T00:17:28.235Z,47.20
2018-07-09T00:18:30.543Z,47.00
2018-07-09T00:19:32.788Z,47.10
2018-07-09T00:20:35.047Z,47.00
2018-07-09T00:21:37.285Z,47.00
2018-07-09T00:22:39.526Z,47.10
2018-07-09T00:23:41.758Z,48.00
2018-07-09T00:24:44.031Z,47.90
2018-07-09T00:25:47.471Z,47.10
2018-07-09T00:26:49.737Z,47.20
2018-07-09T00:27:51.995Z,47.40
2018-07-09T00:28:54.306Z,47.50
2018-07-09T00:29:56.584Z,47.80
2018-07-09T00:30:58.822Z,47.80
2018-07-09T00:32:01.084Z,47.80
2018-07-09T00:33:03.358Z,48.10
2018-07-09T00:34:05.634Z,48.10
2018-07-09T00:35:07.934Z,48.10
2018-07-09T00:36:10.167Z,48.10
2018-07-09T00:37:12.407Z,48.10
2018-07-09T00:38:14.946Z,48.20
2018-07-09T00:39:17.199Z,48.40
2018-07-09T00:40:19.443Z,48.50
2018-07-09T00:41:22.674Z,48.50
2018-07-09T00:42:24.942Z,48.40
2018-07-09T00:43:27.222Z,48.50
2018-07-09T00:44:29.551Z,48.60
2018-07-09T00:45:31.828Z,49.00
2018-07-09T00:46:34.078Z,48.90
2018-07-09T00:47:36.310Z,48.90
2018-07-09T00:48:38.577Z,48.80
2018-07-09T00:49:40.806Z,48.70
2018-07-09T00:50:43.058Z,48.70
2018-07-09T00:51:45.318Z,49.10
2018-07-09T00:52:47.571Z,49.20
2018-07-09T00:53:49.828Z,49.20
2018-07-09T00:54:52.050Z,49.10
2018-07-09T00:55:54.307Z,49.10
2018-07-09T00:56:56.632Z,49.20
2018-07-09T00:57:58.905Z,49.40
2018-07-09T00:59:01.347Z,49.60
2018-07-09T01:00:03.703Z,49.40
2018-07-09T01:01:05.902Z,49.50
2018-07-09T01:02:08.167Z,49.70
2018-07-09T01:03:10.403Z,49.70
2018-07-09T01:04:12.655Z,49.80
2018-07-09T01:05:14.858Z,49.70
2018-07-09T01:06:17.150Z,49.60
2018-07-09T01:07:19.410Z,49.60
2018-07-09T01:08:21.658Z,49.70
2018-07-09T01:09:23.883Z,50.00
2018-07-09T01:10:26.124Z,49.80
2018-07-09T01:11:37.092Z,50.00
2018-07-09T01:12:39.318Z,50.20
2018-07-09T01:13:43.993Z,49.90
2018-07-09T01:14:46.243Z,50.80
2018-07-09T01:15:48.469Z,50.40
2018-07-09T01:17:53.112Z,50.20
2018-07-09T01:18:55.394Z,50.30
2018-07-09T01:19:57.699Z,50.40
2018-07-09T01:20:59.985Z,50.80
2018-07-09T01:23:05.286Z,51.70
2018-07-09T01:24:07.535Z,51.60
2018-07-09T01:25:09.773Z,51.30
2018-07-09T01:27:14.318Z,51.10
2018-07-09T01:28:16.585Z,51.10
2018-07-09T01:30:33.954Z,51.20
2018-07-09T01:31:36.174Z,51.20
2018-07-09T01:32:38.856Z,51.20
2018-07-09T01:33:41.288Z,51.20
2018-07-09T01:34:43.534Z,51.20
2018-07-09T01:35:45.778Z,51.20
2018-07-09T01:36:47.993Z,51.40
2018-07-09T01:37:50.219Z,51.40
2018-07-09T01:38:52.486Z,51.60
2018-07-09T01:39:54.696Z,51.70
2018-07-09T01:40:56.926Z,51.80
2018-07-09T01:41:59.181Z,51.90
2018-07-09T01:43:01.468Z,52.00
2018-07-09T01:44:03.708Z,52.00
2018-07-09T01:45:05.973Z,52.00
2018-07-09T01:46:08.227Z,52.20
2018-07-09T01:47:10.470Z,52.20
2018-07-09T01:48:12.695Z,52.40
2018-07-09T01:49:14.917Z,52.30
2018-07-09T01:50:17.158Z,52.60
2018-07-09T01:51:19.379Z,52.80
2018-07-09T01:52:21.626Z,52.80
2018-07-09T01:54:26.124Z,52.80
2018-07-09T01:55:28.375Z,52.80
2018-07-09T01:56:30.627Z,52.90
2018-07-09T01:57:32.854Z,53.20
2018-07-09T01:58:35.067Z,53.30
2018-07-09T01:59:37.322Z,53.50
2018-07-09T02:00:39.550Z,53.50
2018-07-09T02:01:41.792Z,53.40
2018-07-09T02:02:44.046Z,53.50
2018-07-09T02:03:46.263Z,53.50
2018-07-09T02:04:48.510Z,53.20
2018-07-09T02:05:50.754Z,53.10
2018-07-09T02:06:53.032Z,53.10
2018-07-09T02:07:55.254Z,53.10
2018-07-09T02:08:57.486Z,53.20
2018-07-09T02:09:59.774Z,53.20
2018-07-09T02:11:02.463Z,53.50
2018-07-09T02:12:05.035Z,53.40
2018-07-09T02:13:07.278Z,53.50
2018-07-09T02:14:09.519Z,53.40
2018-07-09T02:15:11.756Z,53.40
2018-07-09T02:16:13.990Z,53.30
2018-07-09T02:17:16.207Z,53.40
2018-07-09T02:18:18.431Z,53.30
2018-07-09T02:19:20.674Z,53.50
2018-07-09T02:20:23.009Z,53.60
2018-07-09T02:21:25.214Z,53.90
2018-07-09T02:22:27.441Z,54.00
2018-07-09T02:23:29.670Z,54.00
2018-07-09T02:24:31.901Z,53.90
2018-07-09T02:25:34.126Z,54.10
2018-07-09T02:26:36.373Z,54.10
2018-07-09T02:27:38.585Z,54.50
2018-07-09T02:28:40.828Z,54.30
2018-07-09T02:29:43.073Z,54.20
2018-07-09T02:30:45.315Z,54.20
2018-07-09T02:31:47.543Z,54.30
2018-07-09T02:32:49.803Z,54.40
2018-07-09T02:33:52.024Z,54.50
2018-07-09T02:34:54.250Z,54.50
2018-07-09T02:35:56.481Z,54.60
2018-07-09T02:36:58.704Z,54.80
2018-07-09T02:38:00.937Z,54.70
2018-07-09T02:40:06.734Z,54.70
2018-07-09T02:41:08.959Z,54.90
2018-07-09T02:44:22.321Z,54.90
2018-07-09T02:45:24.577Z,55.10
2018-07-09T02:46:26.823Z,55.00
2018-07-09T02:47:29.068Z,55.00
2018-07-09T02:48:31.327Z,55.00
2018-07-09T02:50:36.209Z,55.60
2018-07-09T02:51:38.454Z,55.80
2018-07-09T02:52:40.700Z,55.40
2018-07-09T02:53:42.956Z,55.40
2018-07-09T02:56:49.695Z,55.50
2018-07-09T02:57:51.929Z,55.30
2018-07-09T02:58:54.145Z,55.20
2018-07-09T02:59:56.372Z,55.50
2018-07-09T03:02:00.885Z,55.50
2018-07-09T03:03:03.219Z,55.40
2018-07-09T03:04:05.509Z,55.60
2018-07-09T03:05:07.764Z,55.70
2018-07-09T03:06:10.023Z,55.80
2018-07-09T03:07:12.270Z,55.70
2018-07-09T03:08:14.531Z,55.80
2018-07-09T03:10:25.659Z,55.80
2018-07-09T03:11:27.906Z,55.90
2018-07-09T03:13:32.387Z,56.10
2018-07-09T03:14:34.659Z,56.00
2018-07-09T03:15:36.952Z,56.10
2018-07-09T03:16:39.162Z,56.10
2018-07-09T03:17:41.369Z,56.30
2018-07-09T03:18:43.586Z,56.40
2018-07-09T03:19:45.771Z,56.20
2018-07-09T03:20:47.991Z,56.50
2018-07-09T03:21:50.205Z,56.70
2018-07-09T03:22:52.456Z,56.80
2018-07-09T03:23:54.668Z,56.80
2018-07-09T03:24:57.106Z,57.10
2018-07-09T03:25:59.347Z,57.10
2018-07-09T03:27:01.555Z,57.10
2018-07-09T03:28:03.802Z,57.00
2018-07-09T03:29:06.069Z,57.00
2018-07-09T03:30:08.330Z,57.00
2018-07-09T03:31:10.542Z,57.00
2018-07-09T03:32:12.791Z,56.90
2018-07-09T03:33:15.030Z,56.90
2018-07-09T03:34:17.247Z,56.90
2018-07-09T03:35:19.510Z,57.20
2018-07-09T03:36:21.774Z,57.00
2018-07-09T03:37:24.006Z,57.10
2018-07-09T03:38:26.227Z,57.00
2018-07-09T03:39:28.454Z,57.00
2018-07-09T03:40:30.698Z,57.10
2018-07-09T03:41:32.928Z,57.30
2018-07-09T03:42:35.222Z,57.40
2018-07-09T03:43:37.473Z,57.50
2018-07-09T03:44:39.700Z,57.40
2018-07-09T03:45:41.960Z,57.50
2018-07-09T03:46:44.192Z,57.50
2018-07-09T03:47:46.473Z,57.70
2018-07-09T03:48:48.674Z,57.70
2018-07-09T03:49:50.914Z,57.50
2018-07-09T03:50:53.131Z,57.70
2018-07-09T03:51:55.402Z,58.20
2018-07-09T03:52:57.626Z,58.00
2018-07-09T03:53:59.862Z,57.70
2018-07-09T03:55:02.084Z,57.60
2018-07-09T03:56:04.360Z,57.50
2018-07-09T03:57:06.615Z,57.60
2018-07-09T03:58:15.697Z,57.40
2018-07-09T03:59:17.951Z,57.50
2018-07-09T04:00:20.175Z,57.70
2018-07-09T04:01:22.428Z,57.90
2018-07-09T04:02:24.659Z,58.00
2018-07-09T04:03:26.906Z,57.90
2018-07-09T04:04:29.176Z,58.00
2018-07-09T04:05:31.438Z,58.00
2018-07-09T04:06:33.645Z,58.00
2018-07-09T04:07:35.871Z,57.80
2018-07-09T04:08:38.123Z,57.40
2018-07-09T04:09:40.374Z,57.20
2018-07-09T04:10:42.614Z,57.30
2018-07-09T04:11:44.850Z,57.60
2018-07-09T04:12:47.100Z,57.70
2018-07-09T04:13:49.310Z,57.40
2018-07-09T04:14:51.578Z,57.50
2018-07-09T04:15:53.819Z,57.50
2018-07-09T04:16:56.060Z,57.80
2018-07-09T04:17:58.352Z,58.10
2018-07-09T04:19:00.581Z,58.20
2018-07-09T04:20:02.979Z,58.00
2018-07-09T04:21:05.241Z,58.10
2018-07-09T04:22:07.496Z,58.20
2018-07-09T04:23:09.735Z,58.20
2018-07-09T04:24:11.979Z,57.90
2018-07-09T04:25:14.255Z,57.90
2018-07-09T04:26:16.525Z,57.70
2018-07-09T04:27:18.774Z,57.60
2018-07-09T04:28:21.263Z,57.60
2018-07-09T04:29:23.492Z,57.50
2018-07-09T04:30:25.722Z,57.70
2018-07-09T04:31:27.958Z,57.70
2018-07-09T04:32:30.189Z,57.70
2018-07-09T04:33:32.407Z,57.60
2018-07-09T04:34:34.659Z,57.70
2018-07-09T04:35:36.882Z,58.20
2018-07-09T04:36:39.102Z,57.80
2018-07-09T04:38:43.569Z,58.20
2018-07-09T04:39:45.769Z,57.90
2018-07-09T04:40:47.990Z,58.00
2018-07-09T04:42:52.474Z,58.20
2018-07-09T04:43:54.677Z,58.30
2018-07-09T04:44:56.902Z,58.50
2018-07-09T04:45:59.094Z,58.40
2018-07-09T04:47:01.321Z,58.60
2018-07-09T04:48:03.563Z,58.80
2018-07-09T04:49:05.786Z,58.50
2018-07-09T04:50:08.012Z,58.20
2018-07-09T04:51:10.211Z,58.30
2018-07-09T04:52:12.431Z,58.30
2018-07-09T04:54:19.494Z,58.20
2018-07-09T04:55:21.722Z,58.00
2018-07-09T04:56:24.162Z,58.10
2018-07-09T04:57:26.357Z,58.00
2018-07-09T04:58:28.561Z,57.90
2018-07-09T04:59:30.727Z,57.70
2018-07-09T05:00:32.901Z,58.50
2018-07-09T05:01:35.079Z,58.70
2018-07-09T05:02:37.299Z,58.10
2018-07-09T05:04:41.732Z,58.10
2018-07-09T05:05:43.942Z,58.00
2018-07-09T05:06:46.118Z,58.10
2018-07-09T05:07:48.341Z,57.80
2018-07-09T05:08:50.572Z,58.00
2018-07-09T05:09:52.758Z,58.10
2018-07-09T05:10:54.993Z,57.90
2018-07-09T05:11:57.183Z,58.40
2018-07-09T05:12:59.482Z,58.10
2018-07-09T05:14:01.628Z,58.10
2018-07-09T05:15:03.858Z,57.70
2018-07-09T05:16:06.402Z,58.00
2018-07-09T05:17:08.584Z,57.70
2018-07-09T05:18:10.827Z,57.70
2018-07-09T05:19:13.024Z,58.00
2018-07-09T05:20:15.233Z,57.90
2018-07-09T05:21:17.458Z,58.40
2018-07-09T05:22:19.654Z,57.20
2018-07-09T05:23:21.894Z,57.10
2018-07-09T05:24:24.075Z,57.10
2018-07-09T05:25:26.293Z,57.10
2018-07-09T05:26:28.550Z,57.10
2018-07-09T05:27:30.743Z,57.10
2018-07-09T05:28:32.941Z,57.10
2018-07-09T05:29:35.123Z,57.10
2018-07-09T05:30:37.335Z,57.10
2018-07-09T05:31:39.542Z,57.10
2018-07-09T05:32:41.769Z,57.10
2018-07-09T05:33:43.977Z,57.20
2018-07-09T05:34:46.179Z,57.20
2018-07-09T05:35:48.389Z,56.70
2018-07-09T05:36:50.598Z,56.40
2018-07-09T05:37:53.166Z,56.60
2018-07-09T05:38:55.393Z,56.40
2018-07-09T05:39:57.682Z,56.20
2018-07-09T05:40:59.870Z,55.50
2018-07-09T05:42:02.378Z,55.70
2018-07-09T05:43:04.790Z,55.60
2018-07-09T05:44:08.062Z,55.90
2018-07-09T05:45:10.311Z,55.50
2018-07-09T05:46:12.522Z,56.10
2018-07-09T05:48:17.031Z,55.00
2018-07-09T05:49:19.688Z,54.60
2018-07-09T05:50:21.896Z,54.00
2018-07-09T05:51:24.103Z,54.10
2018-07-09T05:52:26.325Z,55.10
2018-07-09T05:53:28.592Z,54.50
2018-07-09T05:54:30.946Z,53.70
2018-07-09T05:55:33.158Z,54.00
2018-07-09T05:56:35.394Z,54.00
2018-07-09T05:57:37.587Z,53.90
2018-07-09T05:59:42.024Z,53.40
2018-07-09T06:00:44.279Z,53.00
2018-07-09T06:01:46.483Z,53.00
2018-07-09T06:02:48.686Z,52.50
2018-07-09T06:03:50.890Z,52.00
2018-07-09T06:04:53.089Z,51.60
2018-07-09T06:05:55.287Z,51.30
2018-07-09T06:06:57.522Z,50.60
2018-07-09T06:07:59.778Z,51.00
2018-07-09T06:09:02.079Z,50.70
2018-07-09T06:10:04.395Z,50.60
2018-07-09T06:11:06.629Z,50.40
2018-07-09T06:12:08.825Z,50.00
2018-07-09T06:13:11.094Z,49.40
2018-07-09T06:14:13.316Z,49.10
2018-07-09T06:15:15.571Z,49.40
2018-07-09T06:16:17.775Z,48.90
2018-07-09T06:17:19.985Z,49.70
2018-07-09T06:18:22.159Z,48.80
2018-07-09T06:19:24.450Z,48.40
2018-07-09T06:20:26.578Z,48.40
2018-07-09T06:21:28.940Z,48.00
2018-07-09T06:22:31.173Z,48.10
2018-07-09T06:23:33.367Z,48.60
2018-07-09T06:24:35.646Z,48.30
2018-07-09T06:25:37.850Z,48.20
2018-07-09T06:26:40.073Z,46.80
2018-07-09T06:27:42.259Z,47.70
2018-07-09T06:28:44.453Z,47.40
2018-07-09T06:30:48.907Z,47.70
2018-07-09T06:31:51.131Z,47.80
2018-07-09T06:32:53.354Z,47.40
2018-07-09T06:33:55.570Z,47.30
2018-07-09T06:34:57.762Z,46.80
2018-07-09T06:35:59.954Z,46.60
2018-07-09T06:37:02.260Z,46.90
2018-07-09T06:38:04.502Z,46.90
2018-07-09T06:40:09.125Z,46.60
2018-07-09T06:41:11.334Z,46.70
2018-07-09T06:42:13.517Z,46.50
2018-07-09T06:43:15.740Z,46.10
2018-07-09T06:44:18.019Z,46.00
2018-07-09T06:45:20.219Z,45.70
2018-07-09T06:46:22.447Z,45.50
2018-07-09T06:47:24.625Z,45.50
2018-07-09T06:48:26.851Z,45.40
2018-07-09T06:49:29.101Z,45.10
2018-07-09T06:51:33.517Z,45.40
2018-07-09T06:52:35.731Z,45.50
2018-07-09T06:54:40.174Z,45.50
2018-07-09T06:55:42.365Z,46.00
2018-07-09T06:56:44.559Z,45.70
2018-07-09T06:57:46.768Z,45.80
2018-07-09T06:58:48.971Z,45.90
2018-07-09T07:00:53.431Z,44.90
2018-07-09T07:01:55.625Z,44.40
2018-07-09T07:02:57.826Z,45.00
2018-07-09T07:04:00.015Z,45.00
2018-07-09T07:05:02.238Z,44.70
2018-07-09T07:06:04.467Z,44.80
2018-07-09T07:07:06.711Z,44.90
2018-07-09T07:08:08.926Z,44.80
2018-07-09T07:09:11.238Z,44.60
2018-07-09T07:10:13.354Z,44.40
2018-07-09T07:11:15.581Z,44.60
2018-07-09T07:12:17.774Z,44.50
2018-07-09T07:13:19.958Z,44.70
2018-07-09T07:14:22.168Z,45.10
2018-07-09T07:15:24.461Z,44.50
2018-07-09T07:16:26.643Z,44.50
2018-07-09T07:17:28.829Z,44.80
2018-07-09T07:18:31.034Z,45.00
2018-07-09T07:19:33.303Z,45.20
2018-07-09T07:20:35.547Z,45.10
2018-07-09T07:21:37.823Z,44.60
2018-07-09T07:22:40.018Z,44.60
2018-07-09T07:23:42.202Z,44.80
2018-07-09T07:24:44.430Z,44.60
2018-07-09T07:25:46.646Z,44.70
2018-07-09T07:26:48.844Z,44.80
2018-07-09T07:27:51.447Z,44.50
2018-07-09T07:28:53.642Z,44.70
2018-07-09T07:29:55.839Z,45.00
2018-07-09T07:32:00.325Z,45.40
2018-07-09T07:33:02.578Z,45.40
2018-07-09T07:34:04.843Z,45.00
2018-07-09T07:35:07.097Z,44.50
2018-07-09T07:36:09.353Z,44.30
2018-07-09T07:37:11.597Z,44.10
2018-07-09T07:38:13.816Z,43.90
2018-07-09T07:40:18.268Z,44.00
2018-07-09T07:41:20.563Z,44.00
2018-07-09T07:42:22.771Z,43.80
2018-07-09T07:43:24.983Z,43.70
2018-07-09T07:44:27.186Z,43.80
2018-07-09T07:45:29.386Z,43.60
2018-07-09T07:46:31.590Z,43.90
2018-07-09T07:47:33.814Z,43.50
2018-07-09T07:48:36.081Z,43.80
2018-07-09T07:49:38.275Z,43.80
2018-07-09T07:51:42.730Z,44.20
2018-07-09T07:52:44.919Z,44.30
2018-07-09T07:53:47.107Z,44.40
2018-07-09T07:54:49.332Z,44.40
2018-07-09T07:55:51.559Z,44.20
2018-07-09T07:56:53.719Z,44.50
2018-07-09T07:57:55.967Z,44.60
2018-07-09T07:58:58.190Z,44.90
2018-07-09T08:00:00.379Z,45.10
2018-07-09T08:01:02.658Z,45.10
2018-07-09T08:02:04.926Z,44.80
2018-07-09T08:03:07.146Z,45.00
2018-07-09T08:04:09.391Z,45.00
2018-07-09T08:05:11.674Z,44.80
2018-07-09T08:06:13.911Z,44.60
2018-07-09T08:08:18.313Z,44.20
2018-07-09T08:09:20.606Z,44.20
2018-07-09T08:10:22.750Z,44.40
2018-07-09T08:13:29.535Z,44.90
2018-07-09T08:14:31.738Z,45.50
2018-07-09T08:15:33.958Z,46.30
2018-07-09T08:16:36.165Z,45.80
2018-07-09T08:17:38.378Z,45.70
2018-07-09T08:18:40.600Z,45.40
2018-07-09T08:19:42.769Z,45.40
2018-07-09T08:20:45.010Z,45.20
2018-07-09T08:21:47.235Z,45.10
2018-07-09T08:22:49.435Z,45.20
2018-07-09T08:23:51.658Z,45.30
2018-07-09T08:24:53.863Z,45.30
2018-07-09T08:25:56.082Z,45.20
2018-07-09T08:26:58.351Z,45.10
2018-07-09T08:28:00.630Z,45.00
2018-07-09T08:29:02.853Z,45.00
2018-07-09T08:30:05.192Z,45.10
2018-07-09T08:31:07.512Z,45.20
2018-07-09T08:32:09.630Z,45.40
2018-07-09T08:33:11.825Z,45.00
2018-07-09T08:34:14.027Z,44.70
2018-07-09T08:35:16.305Z,44.80
2018-07-09T08:37:20.760Z,44.90
2018-07-09T08:38:22.971Z,44.80
2018-07-09T08:39:25.162Z,44.80
2018-07-09T08:40:27.417Z,44.80
2018-07-09T08:41:29.623Z,45.00
2018-07-09T08:43:34.039Z,44.50
2018-07-09T08:44:38.218Z,45.10
2018-07-09T08:45:40.401Z,45.20
2018-07-09T08:46:42.622Z,45.10
2018-07-09T08:47:44.882Z,45.20
2018-07-09T08:48:47.050Z,45.00
2018-07-09T08:49:49.262Z,44.90
2018-07-09T08:50:51.469Z,44.80
2018-07-09T08:51:53.667Z,45.10
2018-07-09T08:52:55.969Z,44.90
2018-07-09T08:53:58.203Z,45.10
2018-07-09T08:55:00.532Z,44.40
2018-07-09T08:56:04.170Z,44.40
2018-07-09T08:57:06.388Z,44.40
2018-07-09T08:58:08.587Z,44.40
2018-07-09T08:59:10.826Z,44.40
2018-07-09T09:00:13.042Z,44.40
2018-07-09T09:01:15.262Z,44.40
2018-07-09T09:02:17.473Z,44.50
2018-07-09T09:03:19.664Z,44.40
2018-07-09T09:04:21.887Z,44.70
2018-07-09T09:05:24.105Z,44.40
2018-07-09T09:06:26.326Z,43.10
2018-07-09T09:08:30.740Z,44.40
2018-07-09T09:10:35.122Z,44.30
2018-07-09T09:11:37.314Z,44.40
2018-07-09T09:12:39.537Z,44.50
2018-07-09T09:13:41.737Z,44.50
2018-07-09T09:14:43.934Z,44.10
2018-07-09T09:15:46.151Z,44.20
2018-07-09T09:16:48.346Z,43.80
2018-07-09T09:18:52.790Z,43.90
2018-07-09T09:19:55.030Z,43.50
2018-07-09T09:20:57.237Z,43.70
2018-07-09T09:23:01.645Z,44.20
2018-07-09T09:24:03.898Z,43.60
2018-07-09T09:25:06.107Z,44.20
2018-07-09T09:26:08.329Z,43.40
2018-07-09T09:27:10.526Z,43.40
2018-07-09T09:29:14.888Z,43.20
2018-07-09T09:30:17.096Z,43.10
2018-07-09T09:31:19.345Z,43.20
2018-07-09T09:33:23.908Z,43.00
2018-07-09T09:34:26.110Z,43.10
2018-07-09T09:35:28.334Z,42.70
2018-07-09T09:36:30.591Z,42.90
2018-07-09T09:37:32.841Z,43.00
2018-07-09T09:38:35.011Z,43.30
2018-07-09T09:39:37.746Z,43.30
2018-07-09T09:40:39.976Z,43.20
2018-07-09T09:41:42.162Z,43.30
2018-07-09T09:42:44.450Z,43.60
2018-07-09T09:43:46.855Z,43.50
2018-07-09T09:44:49.078Z,43.00
2018-07-09T09:45:51.274Z,43.50
2018-07-09T09:46:53.488Z,43.90
2018-07-09T09:47:55.698Z,43.40
2018-07-09T09:48:57.953Z,43.40
2018-07-09T09:51:02.381Z,43.30
2018-07-09T09:52:04.594Z,43.10
2018-07-09T09:53:06.827Z,43.00
2018-07-09T09:54:09.042Z,43.10
2018-07-09T09:55:11.272Z,43.50
2018-07-09T09:56:13.483Z,42.90
2018-07-09T09:57:15.695Z,42.00
2018-07-09T09:58:17.938Z,42.40
2018-07-09T09:59:20.202Z,42.50
2018-07-09T10:00:27.060Z,42.70
2018-07-09T10:01:29.254Z,42.80
2018-07-09T10:02:31.633Z,42.60
2018-07-09T10:03:33.853Z,42.50
2018-07-09T10:04:36.037Z,42.60
2018-07-09T10:05:38.260Z,42.30
2018-07-09T10:06:40.455Z,41.80
2018-07-09T10:07:42.637Z,41.70
2018-07-09T10:08:44.821Z,42.00
2018-07-09T10:09:47.010Z,41.90
2018-07-09T10:10:49.241Z,41.40
2018-07-09T10:11:51.485Z,41.50
2018-07-09T10:12:53.689Z,41.80
2018-07-09T10:13:55.894Z,41.10
2018-07-09T10:14:58.128Z,41.00
2018-07-09T10:16:00.367Z,41.00
2018-07-09T10:17:02.574Z,41.00
2018-07-09T10:18:04.803Z,41.00
2018-07-09T10:19:07.048Z,41.30
2018-07-09T10:20:09.259Z,41.50
2018-07-09T10:21:11.464Z,41.10
2018-07-09T10:22:13.650Z,42.00
2018-07-09T10:23:15.876Z,41.60
2018-07-09T10:25:20.293Z,41.10
2018-07-09T10:26:22.702Z,41.10
2018-07-09T10:27:24.894Z,40.20
2018-07-09T10:28:27.073Z,40.50
2018-07-09T10:29:29.297Z,40.40
2018-07-09T10:30:31.517Z,40.70
2018-07-09T10:31:33.698Z,40.90
2018-07-09T10:32:35.901Z,41.00
2018-07-09T10:33:38.132Z,40.80
2018-07-09T10:34:40.336Z,40.50
2018-07-09T10:35:42.570Z,40.00
2018-07-09T10:36:44.812Z,39.70
2018-07-09T10:37:47.046Z,40.20
2018-07-09T10:38:49.259Z,40.10
2018-07-09T10:39:51.507Z,40.20
2018-07-09T10:41:55.975Z,40.20
2018-07-09T10:44:00.441Z,40.10
2018-07-09T10:45:02.672Z,40.50
2018-07-09T10:46:04.855Z,40.50
2018-07-09T10:47:07.076Z,40.60
2018-07-09T10:48:09.281Z,40.80
2018-07-09T10:49:11.469Z,40.70
2018-07-09T10:50:13.651Z,40.30
2018-07-09T10:51:15.837Z,40.10
2018-07-09T10:52:18.051Z,40.40
2018-07-09T10:54:22.458Z,40.20
2018-07-09T10:55:24.616Z,40.30
2018-07-09T10:56:26.846Z,40.60
2018-07-09T10:57:29.069Z,40.50
2018-07-09T10:58:31.294Z,40.40
2018-07-09T11:00:35.831Z,41.20
2018-07-09T11:01:37.962Z,40.20
2018-07-09T11:02:40.178Z,39.90
2018-07-09T11:03:42.442Z,39.50
2018-07-09T11:04:44.664Z,39.70
2018-07-09T11:05:46.894Z,39.90
2018-07-09T11:06:49.112Z,40.00
2018-07-09T11:07:51.322Z,40.40
2018-07-09T11:08:53.518Z,39.80
2018-07-09T11:09:55.816Z,39.70
2018-07-09T11:10:58.010Z,39.30
2018-07-09T11:12:00.199Z,39.40
2018-07-09T11:13:02.467Z,39.50
2018-07-09T11:15:06.942Z,39.10
2018-07-09T11:16:09.151Z,39.10
2018-07-09T11:17:11.283Z,39.10
2018-07-09T11:18:13.480Z,39.00
2018-07-09T11:19:15.673Z,38.60
2018-07-09T11:20:18.011Z,38.20
2018-07-09T11:21:20.219Z,38.00
2018-07-09T11:22:22.394Z,38.40
2018-07-09T11:23:24.618Z,38.30
2018-07-09T11:25:29.054Z,38.00
2018-07-09T11:26:31.234Z,38.70
2018-07-09T11:27:33.422Z,38.70
2018-07-09T11:28:35.637Z,38.60
2018-07-09T11:29:37.867Z,39.00
2018-07-09T11:31:42.727Z,38.70
2018-07-09T11:32:44.921Z,38.80
2018-07-09T11:33:47.135Z,39.00
2018-07-09T11:34:49.336Z,38.90
2018-07-09T11:35:51.561Z,39.20
2018-07-09T11:36:53.767Z,38.50
2018-07-09T11:37:55.979Z,38.10
2018-07-09T11:38:58.174Z,38.10
2018-07-09T11:40:00.382Z,38.50
2018-07-09T11:41:02.680Z,37.30
2018-07-09T11:42:04.894Z,37.30
2018-07-09T11:43:07.098Z,37.30
2018-07-09T11:44:09.299Z,37.30
2018-07-09T11:45:11.605Z,37.90
2018-07-09T11:46:13.859Z,37.40
2018-07-09T11:47:16.242Z,37.40
2018-07-09T11:48:18.429Z,38.10
2018-07-09T11:49:20.638Z,38.00
2018-07-09T11:50:22.849Z,37.50
2018-07-09T11:51:25.047Z,37.50
2018-07-09T11:53:36.171Z,35.70
2018-07-09T11:54:38.372Z,36.80
2018-07-09T11:55:40.589Z,36.90
2018-07-09T11:56:42.745Z,37.20
2018-07-09T11:57:44.913Z,37.40
2018-07-09T11:58:47.305Z,37.20
2018-07-09T11:59:49.486Z,36.40
2018-07-09T12:00:51.692Z,35.70
2018-07-09T12:01:53.942Z,35.80
2018-07-09T12:02:56.098Z,35.20
2018-07-09T12:03:58.298Z,35.70
2018-07-09T12:05:00.462Z,34.40
2018-07-09T12:06:02.698Z,34.70
2018-07-09T12:07:05.234Z,34.10
2018-07-09T12:08:07.437Z,34.30
2018-07-09T12:09:09.658Z,34.50
2018-07-09T12:10:11.905Z,35.70
2018-07-09T12:11:14.126Z,34.40
2018-07-09T12:12:16.322Z,34.80
2018-07-09T12:13:18.506Z,34.50
2018-07-09T12:14:20.732Z,34.60
2018-07-09T12:15:22.985Z,35.10
2018-07-09T12:17:27.417Z,34.70
2018-07-09T12:18:30.058Z,34.60
2018-07-09T12:19:32.250Z,34.80
2018-07-09T12:20:34.438Z,35.30
2018-07-09T12:21:36.650Z,35.20
2018-07-09T12:23:41.018Z,35.20
2018-07-09T12:25:45.470Z,35.50
2018-07-09T12:26:47.684Z,34.90
2018-07-09T12:27:49.894Z,35.10
2018-07-09T12:28:52.540Z,35.10
2018-07-09T12:29:54.681Z,34.70
2018-07-09T12:30:56.935Z,35.20
2018-07-09T12:33:02.027Z,34.40
2018-07-09T12:34:04.420Z,33.90
2018-07-09T12:35:06.631Z,34.00
2018-07-09T12:36:08.917Z,33.50
2018-07-09T12:37:11.090Z,33.40
2018-07-09T12:38:13.278Z,33.40
2018-07-09T12:39:15.479Z,33.10
2018-07-09T12:40:17.730Z,33.70
2018-07-09T12:41:19.930Z,33.70
2018-07-09T12:42:22.181Z,33.80
2018-07-09T12:43:24.655Z,32.80
2018-07-09T12:44:27.094Z,32.10
2018-07-09T12:45:29.951Z,32.30
2018-07-09T12:46:32.172Z,32.30
2018-07-09T12:47:34.472Z,32.20
2018-07-09T12:48:36.724Z,31.50
2018-07-09T12:49:38.947Z,31.60
2018-07-09T12:50:41.265Z,31.80
2018-07-09T12:51:43.506Z,31.30
2018-07-09T12:53:48.034Z,31.90
2018-07-09T12:54:50.236Z,31.60
2018-07-09T12:55:52.493Z,31.70
2018-07-09T12:56:54.739Z,32.70
2018-07-09T12:57:57.007Z,31.90
2018-07-09T12:58:59.327Z,32.30
2018-07-09T13:00:01.584Z,32.50
2018-07-09T13:01:03.886Z,32.70
2018-07-09T13:02:06.203Z,32.70
2018-07-09T13:03:08.422Z,33.00
2018-07-09T13:04:10.693Z,32.40
2018-07-09T13:05:12.879Z,32.30
2018-07-09T13:06:15.092Z,31.60
2018-07-09T13:07:17.306Z,31.80
2018-07-09T13:08:19.567Z,31.30
2018-07-09T13:09:21.819Z,31.10
2018-07-09T13:10:24.039Z,30.30
2018-07-09T13:11:26.279Z,30.30
2018-07-09T13:12:28.654Z,30.00
2018-07-09T13:13:30.886Z,30.00
2018-07-09T13:14:33.159Z,29.90
2018-07-09T13:15:35.354Z,30.00
2018-07-09T13:16:37.694Z,30.00
2018-07-09T13:17:39.958Z,30.00
2018-07-09T13:18:42.163Z,30.00
2018-07-09T13:19:44.398Z,29.60
2018-07-09T13:20:46.691Z,29.90
2018-07-09T13:21:48.925Z,29.80
2018-07-09T13:22:51.223Z,30.00
2018-07-09T13:23:53.504Z,30.50
2018-07-09T13:24:55.753Z,31.00
2018-07-09T13:25:58.078Z,31.20
2018-07-09T13:28:02.634Z,31.20
2018-07-09T13:29:04.935Z,32.60
2018-07-09T13:31:09.825Z,31.80
2018-07-09T13:32:12.208Z,31.80
2018-07-09T13:33:14.462Z,31.40
2018-07-09T13:34:16.742Z,31.30
2018-07-09T13:35:19.107Z,31.20
2018-07-09T13:36:21.375Z,31.10
2018-07-09T13:37:24.135Z,31.30
2018-07-09T13:38:26.431Z,31.50
2018-07-09T13:39:28.720Z,31.50
2018-07-09T13:40:30.972Z,31.40
2018-07-09T13:41:33.406Z,30.90
2018-07-09T13:42:35.738Z,30.80
2018-07-09T13:43:37.999Z,31.10
2018-07-09T13:44:40.252Z,30.80
2018-07-09T13:45:42.967Z,30.40
2018-07-09T13:46:45.462Z,30.70
2018-07-09T13:47:47.719Z,30.90
2018-07-09T13:48:50.047Z,30.60
2018-07-09T13:49:52.710Z,30.40
2018-07-09T13:50:55.035Z,30.30
2018-07-09T13:51:57.355Z,30.00
2018-07-09T13:52:59.656Z,30.00
2018-07-09T13:54:01.918Z,29.90
2018-07-09T13:55:04.186Z,29.90
2018-07-09T13:56:06.631Z,29.90
2018-07-09T13:57:08.835Z,29.80
2018-07-09T13:58:11.082Z,29.80
2018-07-09T13:59:14.378Z,29.80
2018-07-09T14:00:16.661Z,29.70
2018-07-09T14:01:18.911Z,29.60
2018-07-09T14:02:21.156Z,29.40
2018-07-09T14:03:23.402Z,29.60
2018-07-09T14:04:25.635Z,29.60
2018-07-09T14:05:27.942Z,29.50
2018-07-09T14:06:30.260Z,29.50
2018-07-09T14:07:32.494Z,29.80
2018-07-09T14:08:34.714Z,30.20
2018-07-09T14:09:36.970Z,30.70
2018-07-09T14:10:39.197Z,30.60
2018-07-09T14:11:41.430Z,30.70
2018-07-09T14:12:50.500Z,31.40
2018-07-09T14:13:52.723Z,31.20
2018-07-09T14:14:55.830Z,31.60
2018-07-09T14:15:58.078Z,32.00
2018-07-09T14:17:00.444Z,32.40
2018-07-09T14:18:02.668Z,32.80
2018-07-09T14:20:13.953Z,32.40
2018-07-09T14:21:16.201Z,32.10
2018-07-09T14:22:18.363Z,32.70